Terminal Aerodrome Forecast
Issued by NWS

Home | Current Version | Previous Version | Text Only | Print | Product List | Glossary Off
Versions: 1 2 3 4 5 6 7 8 9 10 11 12 13 14 15 16 17 18 19 20

000
FTUS43 KTOP 220500
TAFFOE
TAF
KFOE 220521Z 2206/2306 17012KT 6SM -DZ BR OVC014
     FM221100 17010KT 3SM -RA BR OVC006
     FM221500 22012KT 3SM -RA BR OVC008
     FM222000 27014KT 6SM -RA BR BKN010=

USA.gov is the U.S. government's official web portal to all federal, state and local government web resources and services.